sensor_id;sensor_type;location;lat;lon;timestamp;P1;durP1;ratioP1;P2;durP2;ratioP2
17727;SDS011;8984;49.268;12.302;2022-09-12T00:02:15;7.33;;;4.40;;
17727;SDS011;8984;49.268;12.302;2022-09-12T00:04:42;6.40;;;5.00;;
17727;SDS011;8984;49.268;12.302;2022-09-12T00:07:11;4.97;;;4.50;;
17727;SDS011;8984;49.268;12.302;2022-09-12T00:09:38;6.03;;;5.20;;
17727;SDS011;8984;49.268;12.302;2022-09-12T00:12:05;8.17;;;5.23;;
17727;SDS011;8984;49.268;12.302;2022-09-12T00:14:32;17.23;;;6.03;;
17727;SDS011;8984;49.268;12.302;2022-09-12T00:16:59;8.03;;;5.97;;
17727;SDS011;8984;49.268;12.302;2022-09-12T00:19:27;7.10;;;5.70;;
17727;SDS011;8984;49.268;12.302;2022-09-12T00:21:54;13.00;;;5.87;;
17727;SDS011;8984;49.268;12.302;2022-09-12T00:24:22;7.53;;;5.20;;
17727;SDS011;8984;49.268;12.302;2022-09-12T00:26:49;5.97;;;5.23;;
17727;SDS011;8984;49.268;12.302;2022-09-12T00:29:17;6.23;;;5.47;;
17727;SDS011;8984;49.268;12.302;2022-09-12T00:31:45;42.33;;;6.43;;
17727;SDS011;8984;49.268;12.302;2022-09-12T00:34:12;31.67;;;6.60;;
17727;SDS011;8984;49.268;12.302;2022-09-12T00:36:39;23.70;;;5.90;;
17727;SDS011;8984;49.268;12.302;2022-09-12T00:39:07;51.43;;;5.70;;
17727;SDS011;8984;49.268;12.302;2022-09-12T00:41:36;41.47;;;5.10;;
17727;SDS011;8984;49.268;12.302;2022-09-12T00:50:26;29.10;;;4.20;;
17727;SDS011;8984;49.268;12.302;2022-09-12T00:52:54;40.17;;;4.40;;
17727;SDS011;8984;49.268;12.302;2022-09-12T00:55:25;91.43;;;6.33;;
17727;SDS011;8984;49.268;12.302;2022-09-12T00:57:57;129.37;;;6.67;;
17727;SDS011;8984;49.268;12.302;2022-09-12T01:00:27;175.67;;;7.23;;
17727;SDS011;8984;49.268;12.302;2022-09-12T01:02:56;15.37;;;4.23;;
17727;SDS011;8984;49.268;12.302;2022-09-12T01:05:25;33.23;;;4.97;;
17727;SDS011;8984;49.268;12.302;2022-09-12T01:07:55;18.83;;;4.43;;
17727;SDS011;8984;49.268;12.302;2022-09-12T01:10:22;107.87;;;5.80;;
17727;SDS011;8984;49.268;12.302;2022-09-12T01:12:50;193.60;;;10.30;;
17727;SDS011;8984;49.268;12.302;2022-09-12T01:15:18;142.17;;;8.30;;
17727;SDS011;8984;49.268;12.302;2022-09-12T01:17:51;56.17;;;8.87;;
17727;SDS011;8984;49.268;12.302;2022-09-12T01:20:39;12.93;;;6.00;;
17727;SDS011;8984;49.268;12.302;2022-09-12T01:29:51;14.53;;;4.97;;
17727;SDS011;8984;49.268;12.302;2022-09-12T01:35:50;16.33;;;4.63;;
17727;SDS011;8984;49.268;12.302;2022-09-12T01:38:28;13.27;;;4.80;;
17727;SDS011;8984;49.268;12.302;2022-09-12T01:41:12;4.27;;;3.87;;
17727;SDS011;8984;49.268;12.302;2022-09-12T01:43:49;5.70;;;4.47;;
17727;SDS011;8984;49.268;12.302;2022-09-12T01:46:26;6.20;;;4.30;;
17727;SDS011;8984;49.268;12.302;2022-09-12T01:48:59;5.57;;;3.90;;
17727;SDS011;8984;49.268;12.302;2022-09-12T01:51:33;4.10;;;3.80;;
17727;SDS011;8984;49.268;12.302;2022-09-12T01:54:05;4.13;;;3.73;;
17727;SDS011;8984;49.268;12.302;2022-09-12T01:56:37;25.97;;;4.17;;
17727;SDS011;8984;49.268;12.302;2022-09-12T01:59:09;16.53;;;4.53;;
17727;SDS011;8984;49.268;12.302;2022-09-12T02:01:41;4.90;;;3.77;;
17727;SDS011;8984;49.268;12.302;2022-09-12T02:04:13;11.23;;;4.30;;
17727;SDS011;8984;49.268;12.302;2022-09-12T02:06:45;6.73;;;5.00;;
17727;SDS011;8984;49.268;12.302;2022-09-12T02:09:16;17.47;;;4.10;;
17727;SDS011;8984;49.268;12.302;2022-09-12T02:11:46;54.47;;;4.77;;
17727;SDS011;8984;49.268;12.302;2022-09-12T02:14:16;92.57;;;4.97;;
17727;SDS011;8984;49.268;12.302;2022-09-12T02:16:49;36.27;;;4.57;;
17727;SDS011;8984;49.268;12.302;2022-09-12T02:19:19;79.30;;;4.87;;
17727;SDS011;8984;49.268;12.302;2022-09-12T02:21:51;57.30;;;4.80;;
17727;SDS011;8984;49.268;12.302;2022-09-12T02:24:21;26.33;;;4.67;;
17727;SDS011;8984;49.268;12.302;2022-09-12T02:26:55;36.83;;;5.23;;
17727;SDS011;8984;49.268;12.302;2022-09-12T02:29:28;32.23;;;5.27;;
17727;SDS011;8984;49.268;12.302;2022-09-12T02:35:08;45.80;;;4.97;;
17727;SDS011;8984;49.268;12.302;2022-09-12T02:37:48;24.70;;;4.63;;
17727;SDS011;8984;49.268;12.302;2022-09-12T02:40:22;120.37;;;6.60;;
17727;SDS011;8984;49.268;12.302;2022-09-12T02:42:49;6.20;;;4.63;;
17727;SDS011;8984;49.268;12.302;2022-09-12T02:45:17;70.43;;;4.80;;
17727;SDS011;8984;49.268;12.302;2022-09-12T02:47:45;19.70;;;4.90;;
17727;SDS011;8984;49.268;12.302;2022-09-12T02:50:16;45.53;;;5.30;;
17727;SDS011;8984;49.268;12.302;2022-09-12T02:55:19;38.53;;;5.17;;
17727;SDS011;8984;49.268;12.302;2022-09-12T02:57:48;31.23;;;5.40;;
17727;SDS011;8984;49.268;12.302;2022-09-12T03:00:15;9.83;;;4.47;;
17727;SDS011;8984;49.268;12.302;2022-09-12T03:02:46;57.50;;;5.00;;
17727;SDS011;8984;49.268;12.302;2022-09-12T03:05:26;11.10;;;4.50;;
17727;SDS011;8984;49.268;12.302;2022-09-12T03:08:01;21.57;;;4.80;;
17727;SDS011;8984;49.268;12.302;2022-09-12T03:10:41;9.10;;;3.93;;
17727;SDS011;8984;49.268;12.302;2022-09-12T03:13:25;42.73;;;4.97;;
17727;SDS011;8984;49.268;12.302;2022-09-12T03:16:01;96.60;;;5.50;;
17727;SDS011;8984;49.268;12.302;2022-09-12T03:18:40;102.63;;;5.83;;
17727;SDS011;8984;49.268;12.302;2022-09-12T03:21:16;140.40;;;6.30;;
17727;SDS011;8984;49.268;12.302;2022-09-12T03:23:52;5.77;;;4.40;;
17727;SDS011;8984;49.268;12.302;2022-09-12T03:26:38;10.10;;;4.50;;
17727;SDS011;8984;49.268;12.302;2022-09-12T03:29:08;13.87;;;4.30;;
17727;SDS011;8984;49.268;12.302;2022-09-12T03:31:36;18.23;;;5.00;;
17727;SDS011;8984;49.268;12.302;2022-09-12T03:37:35;5.80;;;4.03;;
17727;SDS011;8984;49.268;12.302;2022-09-12T03:40:04;13.40;;;4.63;;
17727;SDS011;8984;49.268;12.302;2022-09-12T03:42:31;11.40;;;4.30;;
17727;SDS011;8984;49.268;12.302;2022-09-12T03:44:58;20.37;;;5.07;;
17727;SDS011;8984;49.268;12.302;2022-09-12T03:47:25;6.40;;;3.80;;
17727;SDS011;8984;49.268;12.302;2022-09-12T03:49:52;153.90;;;8.10;;
17727;SDS011;8984;49.268;12.302;2022-09-12T03:52:19;115.17;;;5.87;;
17727;SDS011;8984;49.268;12.302;2022-09-12T03:54:45;88.60;;;5.70;;
17727;SDS011;8984;49.268;12.302;2022-09-12T03:57:14;56.27;;;5.03;;
17727;SDS011;8984;49.268;12.302;2022-09-12T03:59:41;16.60;;;4.40;;
17727;SDS011;8984;49.268;12.302;2022-09-12T04:02:07;34.67;;;5.17;;
17727;SDS011;8984;49.268;12.302;2022-09-12T04:04:36;21.87;;;4.03;;
17727;SDS011;8984;49.268;12.302;2022-09-12T04:07:03;47.17;;;5.07;;
17727;SDS011;8984;49.268;12.302;2022-09-12T04:09:30;92.27;;;6.33;;
17727;SDS011;8984;49.268;12.302;2022-09-12T04:12:00;14.53;;;5.47;;
17727;SDS011;8984;49.268;12.302;2022-09-12T04:14:28;46.20;;;5.27;;
17727;SDS011;8984;49.268;12.302;2022-09-12T04:16:56;41.10;;;4.90;;
17727;SDS011;8984;49.268;12.302;2022-09-12T04:19:24;88.30;;;6.63;;
17727;SDS011;8984;49.268;12.302;2022-09-12T04:21:51;6.27;;;4.30;;
17727;SDS011;8984;49.268;12.302;2022-09-12T04:24:18;9.03;;;3.63;;
17727;SDS011;8984;49.268;12.302;2022-09-12T04:26:45;51.60;;;5.53;;
17727;SDS011;8984;49.268;12.302;2022-09-12T04:29:12;4.00;;;3.70;;
17727;SDS011;8984;49.268;12.302;2022-09-12T04:31:41;51.10;;;4.40;;
17727;SDS011;8984;49.268;12.302;2022-09-12T04:34:08;10.10;;;4.60;;
17727;SDS011;8984;49.268;12.302;2022-09-12T04:36:35;65.13;;;5.53;;
17727;SDS011;8984;49.268;12.302;2022-09-12T04:39:05;128.57;;;5.97;;
17727;SDS011;8984;49.268;12.302;2022-09-12T04:41:33;12.67;;;3.60;;
17727;SDS011;8984;49.268;12.302;2022-09-12T04:44:02;40.20;;;4.13;;
17727;SDS011;8984;49.268;12.302;2022-09-12T04:46:34;52.10;;;4.40;;
17727;SDS011;8984;49.268;12.302;2022-09-12T04:49:04;82.10;;;5.30;;
17727;SDS011;8984;49.268;12.302;2022-09-12T04:51:32;71.23;;;4.50;;
17727;SDS011;8984;49.268;12.302;2022-09-12T04:54:01;11.00;;;3.27;;
17727;SDS011;8984;49.268;12.302;2022-09-12T04:56:30;48.70;;;5.03;;
17727;SDS011;8984;49.268;12.302;2022-09-12T04:58:58;10.33;;;4.33;;
17727;SDS011;8984;49.268;12.302;2022-09-12T05:01:32;25.80;;;4.33;;
17727;SDS011;8984;49.268;12.302;2022-09-12T05:03:58;17.70;;;3.87;;
17727;SDS011;8984;49.268;12.302;2022-09-12T05:06:28;33.30;;;4.97;;
17727;SDS011;8984;49.268;12.302;2022-09-12T05:08:56;10.47;;;4.43;;
17727;SDS011;8984;49.268;12.302;2022-09-12T05:11:24;20.77;;;4.30;;
17727;SDS011;8984;49.268;12.302;2022-09-12T05:13:53;4.33;;;3.73;;
17727;SDS011;8984;49.268;12.302;2022-09-12T05:16:20;22.03;;;4.07;;
17727;SDS011;8984;49.268;12.302;2022-09-12T05:18:48;10.63;;;4.03;;
17727;SDS011;8984;49.268;12.302;2022-09-12T05:21:16;18.97;;;4.50;;
17727;SDS011;8984;49.268;12.302;2022-09-12T05:23:46;10.67;;;4.07;;
17727;SDS011;8984;49.268;12.302;2022-09-12T05:26:16;4.70;;;4.10;;
17727;SDS011;8984;49.268;12.302;2022-09-12T05:28:44;21.97;;;4.50;;
17727;SDS011;8984;49.268;12.302;2022-09-12T05:31:13;5.43;;;3.90;;
17727;SDS011;8984;49.268;12.302;2022-09-12T05:33:42;6.43;;;3.70;;
17727;SDS011;8984;49.268;12.302;2022-09-12T05:36:10;22.67;;;4.63;;
17727;SDS011;8984;49.268;12.302;2022-09-12T05:38:38;7.73;;;4.17;;
17727;SDS011;8984;49.268;12.302;2022-09-12T05:41:07;5.07;;;3.97;;
17727;SDS011;8984;49.268;12.302;2022-09-12T05:43:36;9.57;;;4.10;;
17727;SDS011;8984;49.268;12.302;2022-09-12T05:46:05;14.03;;;4.23;;
17727;SDS011;8984;49.268;12.302;2022-09-12T05:48:34;6.73;;;4.10;;
17727;SDS011;8984;49.268;12.302;2022-09-12T05:51:03;19.10;;;4.90;;
17727;SDS011;8984;49.268;12.302;2022-09-12T05:53:31;15.00;;;4.80;;
17727;SDS011;8984;49.268;12.302;2022-09-12T05:58:59;15.97;;;4.07;;
17727;SDS011;8984;49.268;12.302;2022-09-12T06:01:27;4.07;;;3.77;;
17727;SDS011;8984;49.268;12.302;2022-09-12T06:03:55;16.07;;;4.17;;
17727;SDS011;8984;49.268;12.302;2022-09-12T06:06:25;6.53;;;3.53;;
17727;SDS011;8984;49.268;12.302;2022-09-12T06:08:53;7.53;;;4.37;;
17727;SDS011;8984;49.268;12.302;2022-09-12T06:11:22;4.60;;;4.20;;
17727;SDS011;8984;49.268;12.302;2022-09-12T06:13:51;7.87;;;4.60;;
17727;SDS011;8984;49.268;12.302;2022-09-12T06:16:19;7.23;;;4.27;;
17727;SDS011;8984;49.268;12.302;2022-09-12T06:18:47;4.50;;;4.10;;
17727;SDS011;8984;49.268;12.302;2022-09-12T06:21:15;5.57;;;3.70;;
17727;SDS011;8984;49.268;12.302;2022-09-12T06:23:43;22.27;;;4.80;;
17727;SDS011;8984;49.268;12.302;2022-09-12T06:26:12;46.27;;;5.50;;
17727;SDS011;8984;49.268;12.302;2022-09-12T06:28:42;5.60;;;4.20;;
17727;SDS011;8984;49.268;12.302;2022-09-12T06:31:12;6.90;;;4.47;;
17727;SDS011;8984;49.268;12.302;2022-09-12T06:33:41;36.30;;;5.60;;
17727;SDS011;8984;49.268;12.302;2022-09-12T06:36:10;17.67;;;4.67;;
17727;SDS011;8984;49.268;12.302;2022-09-12T06:38:37;10.37;;;4.50;;
17727;SDS011;8984;49.268;12.302;2022-09-12T06:41:05;11.43;;;4.23;;
17727;SDS011;8984;49.268;12.302;2022-09-12T06:43:34;7.70;;;4.37;;
17727;SDS011;8984;49.268;12.302;2022-09-12T06:46:02;33.90;;;5.00;;
17727;SDS011;8984;49.268;12.302;2022-09-12T06:48:30;12.20;;;4.80;;
17727;SDS011;8984;49.268;12.302;2022-09-12T06:50:58;14.23;;;5.10;;
17727;SDS011;8984;49.268;12.302;2022-09-12T06:53:27;95.80;;;6.47;;
17727;SDS011;8984;49.268;12.302;2022-09-12T06:55:56;85.13;;;7.10;;
17727;SDS011;8984;49.268;12.302;2022-09-12T06:58:24;25.70;;;9.43;;
17727;SDS011;8984;49.268;12.302;2022-09-12T07:00:52;17.93;;;5.63;;
17727;SDS011;8984;49.268;12.302;2022-09-12T07:03:26;25.60;;;5.27;;
17727;SDS011;8984;49.268;12.302;2022-09-12T07:06:00;17.33;;;9.10;;
17727;SDS011;8984;49.268;12.302;2022-09-12T07:08:30;7.97;;;4.47;;
17727;SDS011;8984;49.268;12.302;2022-09-12T07:10:58;19.47;;;4.77;;
17727;SDS011;8984;49.268;12.302;2022-09-12T07:13:35;15.53;;;10.27;;
17727;SDS011;8984;49.268;12.302;2022-09-12T07:19:06;5.67;;;5.13;;
17727;SDS011;8984;49.268;12.302;2022-09-12T07:21:36;8.40;;;5.13;;
17727;SDS011;8984;49.268;12.302;2022-09-12T07:24:04;4.37;;;3.97;;
17727;SDS011;8984;49.268;12.302;2022-09-12T07:26:32;4.83;;;4.37;;
17727;SDS011;8984;49.268;12.302;2022-09-12T07:28:59;5.00;;;4.60;;
17727;SDS011;8984;49.268;12.302;2022-09-12T07:31:28;5.07;;;4.57;;
17727;SDS011;8984;49.268;12.302;2022-09-12T07:33:57;9.00;;;5.37;;
17727;SDS011;8984;49.268;12.302;2022-09-12T07:36:24;9.83;;;4.90;;
17727;SDS011;8984;49.268;12.302;2022-09-12T07:38:56;4.47;;;4.07;;
17727;SDS011;8984;49.268;12.302;2022-09-12T07:41:24;7.43;;;4.83;;
17727;SDS011;8984;49.268;12.302;2022-09-12T07:43:52;5.57;;;4.97;;
17727;SDS011;8984;49.268;12.302;2022-09-12T07:46:20;4.70;;;4.30;;
17727;SDS011;8984;49.268;12.302;2022-09-12T07:48:50;5.03;;;4.63;;
17727;SDS011;8984;49.268;12.302;2022-09-12T07:51:19;13.30;;;5.47;;
17727;SDS011;8984;49.268;12.302;2022-09-12T07:53:46;6.10;;;4.47;;
17727;SDS011;8984;49.268;12.302;2022-09-12T07:56:15;12.57;;;4.70;;
17727;SDS011;8984;49.268;12.302;2022-09-12T07:58:47;7.00;;;5.00;;
17727;SDS011;8984;49.268;12.302;2022-09-12T08:01:14;6.53;;;5.73;;
17727;SDS011;8984;49.268;12.302;2022-09-12T08:03:43;5.70;;;5.20;;
17727;SDS011;8984;49.268;12.302;2022-09-12T08:06:12;6.30;;;5.70;;
17727;SDS011;8984;49.268;12.302;2022-09-12T08:08:39;10.50;;;6.07;;
17727;SDS011;8984;49.268;12.302;2022-09-12T08:11:07;6.67;;;6.07;;
17727;SDS011;8984;49.268;12.302;2022-09-12T08:13:37;7.20;;;6.07;;
17727;SDS011;8984;49.268;12.302;2022-09-12T08:16:05;5.77;;;5.17;;
17727;SDS011;8984;49.268;12.302;2022-09-12T08:18:33;7.03;;;5.43;;
17727;SDS011;8984;49.268;12.302;2022-09-12T08:21:02;5.23;;;4.73;;
17727;SDS011;8984;49.268;12.302;2022-09-12T08:23:31;5.37;;;4.87;;
17727;SDS011;8984;49.268;12.302;2022-09-12T08:25:58;5.87;;;5.37;;
17727;SDS011;8984;49.268;12.302;2022-09-12T08:28:27;7.77;;;6.27;;
17727;SDS011;8984;49.268;12.302;2022-09-12T08:30:59;5.90;;;5.30;;
17727;SDS011;8984;49.268;12.302;2022-09-12T08:33:27;5.43;;;4.93;;
17727;SDS011;8984;49.268;12.302;2022-09-12T08:36:01;6.70;;;6.10;;
17727;SDS011;8984;49.268;12.302;2022-09-12T08:38:30;6.70;;;5.70;;
17727;SDS011;8984;49.268;12.302;2022-09-12T08:40:59;12.27;;;6.80;;
17727;SDS011;8984;49.268;12.302;2022-09-12T08:43:33;6.73;;;5.37;;
17727;SDS011;8984;49.268;12.302;2022-09-12T08:46:14;5.57;;;5.07;;
17727;SDS011;8984;49.268;12.302;2022-09-12T08:48:47;7.27;;;5.60;;
17727;SDS011;8984;49.268;12.302;2022-09-12T08:51:15;6.13;;;5.53;;
17727;SDS011;8984;49.268;12.302;2022-09-12T08:53:47;5.33;;;4.83;;
17727;SDS011;8984;49.268;12.302;2022-09-12T08:56:18;8.23;;;5.00;;
17727;SDS011;8984;49.268;12.302;2022-09-12T08:58:46;5.23;;;4.73;;
17727;SDS011;8984;49.268;12.302;2022-09-12T09:01:22;5.63;;;5.13;;
17727;SDS011;8984;49.268;12.302;2022-09-12T09:04:04;6.33;;;4.83;;
17727;SDS011;8984;49.268;12.302;2022-09-12T09:06:48;6.70;;;6.00;;
17727;SDS011;8984;49.268;12.302;2022-09-12T09:09:30;6.50;;;5.90;;
17727;SDS011;8984;49.268;12.302;2022-09-12T09:12:09;7.07;;;5.83;;
17727;SDS011;8984;49.268;12.302;2022-09-12T09:14:47;6.07;;;5.53;;
17727;SDS011;8984;49.268;12.302;2022-09-12T09:17:28;4.60;;;3.50;;
17727;SDS011;8984;49.268;12.302;2022-09-12T09:20:02;5.90;;;5.20;;
17727;SDS011;8984;49.268;12.302;2022-09-12T09:22:39;6.03;;;5.43;;
17727;SDS011;8984;49.268;12.302;2022-09-12T09:25:12;6.20;;;5.60;;
17727;SDS011;8984;49.268;12.302;2022-09-12T09:27:44;6.63;;;6.03;;
17727;SDS011;8984;49.268;12.302;2022-09-12T09:30:14;4.67;;;4.17;;
17727;SDS011;8984;49.268;12.302;2022-09-12T09:32:44;5.97;;;5.10;;
17727;SDS011;8984;49.268;12.302;2022-09-12T09:35:15;7.27;;;5.57;;
17727;SDS011;8984;49.268;12.302;2022-09-12T09:37:48;6.67;;;6.07;;
17727;SDS011;8984;49.268;12.302;2022-09-12T09:40:26;6.35;;;5.75;;
17727;SDS011;8984;49.268;12.302;2022-09-12T09:43:02;5.88;;;5.05;;
17727;SDS011;8984;49.268;12.302;2022-09-12T09:45:39;8.05;;;5.90;;
17727;SDS011;8984;49.268;12.302;2022-09-12T09:48:12;4.65;;;3.60;;
17727;SDS011;8984;49.268;12.302;2022-09-12T09:50:42;6.30;;;5.68;;
17727;SDS011;8984;49.268;12.302;2022-09-12T09:53:11;6.75;;;5.65;;
17727;SDS011;8984;49.268;12.302;2022-09-12T09:55:59;5.28;;;3.63;;
17727;SDS011;8984;49.268;12.302;2022-09-12T09:58:30;6.75;;;5.35;;
17727;SDS011;8984;49.268;12.302;2022-09-12T10:00:59;5.07;;;4.55;;
17727;SDS011;8984;49.268;12.302;2022-09-12T10:03:32;4.68;;;4.28;;
17727;SDS011;8984;49.268;12.302;2022-09-12T10:06:05;4.65;;;3.83;;
17727;SDS011;8984;49.268;12.302;2022-09-12T10:08:47;4.47;;;3.88;;
17727;SDS011;8984;49.268;12.302;2022-09-12T10:11:16;4.57;;;4.18;;
17727;SDS011;8984;49.268;12.302;2022-09-12T10:13:51;5.10;;;4.60;;
17727;SDS011;8984;49.268;12.302;2022-09-12T10:16:21;11.05;;;6.88;;
17727;SDS011;8984;49.268;12.302;2022-09-12T10:18:50;6.03;;;4.43;;
17727;SDS011;8984;49.268;12.302;2022-09-12T10:21:20;3.80;;;3.50;;
17727;SDS011;8984;49.268;12.302;2022-09-12T10:23:57;4.00;;;3.67;;
17727;SDS011;8984;49.268;12.302;2022-09-12T10:26:30;3.60;;;3.30;;
17727;SDS011;8984;49.268;12.302;2022-09-12T10:29:02;4.07;;;3.50;;
17727;SDS011;8984;49.268;12.302;2022-09-12T10:31:40;3.55;;;3.25;;
17727;SDS011;8984;49.268;12.302;2022-09-12T10:34:18;4.57;;;3.20;;
17727;SDS011;8984;49.268;12.302;2022-09-12T10:36:52;3.53;;;3.22;;
17727;SDS011;8984;49.268;12.302;2022-09-12T10:39:24;4.43;;;3.70;;
17727;SDS011;8984;49.268;12.302;2022-09-12T10:41:52;4.65;;;3.40;;
17727;SDS011;8984;49.268;12.302;2022-09-12T10:44:23;3.05;;;2.85;;
17727;SDS011;8984;49.268;12.302;2022-09-12T10:46:51;4.43;;;3.00;;
17727;SDS011;8984;49.268;12.302;2022-09-12T10:49:23;3.20;;;2.90;;
17727;SDS011;8984;49.268;12.302;2022-09-12T10:51:51;3.75;;;3.20;;
17727;SDS011;8984;49.268;12.302;2022-09-12T10:54:20;3.92;;;2.72;;
17727;SDS011;8984;49.268;12.302;2022-09-12T10:56:53;3.22;;;2.60;;
17727;SDS011;8984;49.268;12.302;2022-09-12T10:59:46;2.60;;;2.40;;
17727;SDS011;8984;49.268;12.302;2022-09-12T11:02:29;2.40;;;2.20;;
17727;SDS011;8984;49.268;12.302;2022-09-12T11:05:08;3.47;;;2.80;;
17727;SDS011;8984;49.268;12.302;2022-09-12T11:07:41;2.30;;;2.10;;
17727;SDS011;8984;49.268;12.302;2022-09-12T11:10:22;2.67;;;2.15;;
17727;SDS011;8984;49.268;12.302;2022-09-12T11:13:01;2.17;;;2.00;;
17727;SDS011;8984;49.268;12.302;2022-09-12T11:15:48;2.85;;;2.30;;
17727;SDS011;8984;49.268;12.302;2022-09-12T11:18:30;3.25;;;2.95;;
17727;SDS011;8984;49.268;12.302;2022-09-12T11:21:18;2.63;;;2.42;;
17727;SDS011;8984;49.268;12.302;2022-09-12T11:24:01;5.22;;;2.47;;
17727;SDS011;8984;49.268;12.302;2022-09-12T11:26:59;2.47;;;2.25;;
17727;SDS011;8984;49.268;12.302;2022-09-12T11:29:38;4.00;;;2.03;;
17727;SDS011;8984;49.268;12.302;2022-09-12T11:32:24;1.95;;;1.63;;
17727;SDS011;8984;49.268;12.302;2022-09-12T11:35:06;2.15;;;1.73;;
17727;SDS011;8984;49.268;12.302;2022-09-12T11:37:52;2.13;;;1.92;;
17727;SDS011;8984;49.268;12.302;2022-09-12T11:40:43;2.00;;;1.80;;
17727;SDS011;8984;49.268;12.302;2022-09-12T11:43:21;11.18;;;4.80;;
17727;SDS011;8984;49.268;12.302;2022-09-12T11:45:56;21.95;;;7.20;;
17727;SDS011;8984;49.268;12.302;2022-09-12T11:48:33;13.00;;;5.10;;
17727;SDS011;8984;49.268;12.302;2022-09-12T11:51:06;15.32;;;5.03;;
17727;SDS011;8984;49.268;12.302;2022-09-12T11:53:45;17.73;;;6.35;;
17727;SDS011;8984;49.268;12.302;2022-09-12T11:56:22;3.10;;;1.80;;
17727;SDS011;8984;49.268;12.302;2022-09-12T11:58:50;5.35;;;2.20;;
17727;SDS011;8984;49.268;12.302;2022-09-12T12:01:25;4.45;;;2.20;;
17727;SDS011;8984;49.268;12.302;2022-09-12T12:03:57;3.13;;;1.70;;
17727;SDS011;8984;49.268;12.302;2022-09-12T12:06:32;1.80;;;1.60;;
17727;SDS011;8984;49.268;12.302;2022-09-12T12:09:06;6.30;;;2.40;;
17727;SDS011;8984;49.268;12.302;2022-09-12T12:11:36;3.17;;;1.80;;
17727;SDS011;8984;49.268;12.302;2022-09-12T12:14:05;3.38;;;1.80;;
17727;SDS011;8984;49.268;12.302;2022-09-12T12:16:40;3.63;;;1.80;;
17727;SDS011;8984;49.268;12.302;2022-09-12T12:19:20;1.88;;;1.50;;
17727;SDS011;8984;49.268;12.302;2022-09-12T12:22:05;2.60;;;1.70;;
17727;SDS011;8984;49.268;12.302;2022-09-12T12:24:37;2.63;;;1.80;;
17727;SDS011;8984;49.268;12.302;2022-09-12T12:27:23;2.88;;;1.90;;
17727;SDS011;8984;49.268;12.302;2022-09-12T12:36:27;2.13;;;1.70;;
17727;SDS011;8984;49.268;12.302;2022-09-12T12:38:57;1.92;;;1.58;;
17727;SDS011;8984;49.268;12.302;2022-09-12T12:41:42;2.60;;;1.85;;
17727;SDS011;8984;49.268;12.302;2022-09-12T12:47:16;2.88;;;1.58;;
17727;SDS011;8984;49.268;12.302;2022-09-12T12:49:48;2.45;;;1.73;;
17727;SDS011;8984;49.268;12.302;2022-09-12T12:52:17;4.80;;;1.65;;
17727;SDS011;8984;49.268;12.302;2022-09-12T12:54:49;10.63;;;5.47;;
17727;SDS011;8984;49.268;12.302;2022-09-12T12:57:28;4.45;;;3.05;;
17727;SDS011;8984;49.268;12.302;2022-09-12T13:00:05;3.70;;;1.80;;
17727;SDS011;8984;49.268;12.302;2022-09-12T13:02:38;6.72;;;4.57;;
17727;SDS011;8984;49.268;12.302;2022-09-12T13:05:16;3.60;;;2.90;;
17727;SDS011;8984;49.268;12.302;2022-09-12T13:07:45;3.10;;;2.20;;
17727;SDS011;8984;49.268;12.302;2022-09-12T13:10:21;1.88;;;1.73;;
17727;SDS011;8984;49.268;12.302;2022-09-12T13:12:52;2.10;;;1.90;;
17727;SDS011;8984;49.268;12.302;2022-09-12T13:18:16;3.45;;;2.00;;
17727;SDS011;8984;49.268;12.302;2022-09-12T13:20:49;2.25;;;1.58;;
17727;SDS011;8984;49.268;12.302;2022-09-12T13:23:23;1.92;;;1.58;;
17727;SDS011;8984;49.268;12.302;2022-09-12T13:25:51;2.30;;;1.70;;
17727;SDS011;8984;49.268;12.302;2022-09-12T13:28:20;1.92;;;1.40;;
17727;SDS011;8984;49.268;12.302;2022-09-12T13:30:53;1.40;;;1.30;;
17727;SDS011;8984;49.268;12.302;2022-09-12T13:33:23;1.63;;;1.48;;
17727;SDS011;8984;49.268;12.302;2022-09-12T13:38:58;2.00;;;1.55;;
17727;SDS011;8984;49.268;12.302;2022-09-12T13:41:45;2.50;;;1.75;;
17727;SDS011;8984;49.268;12.302;2022-09-12T13:44:36;2.30;;;1.73;;
17727;SDS011;8984;49.268;12.302;2022-09-12T13:47:07;1.50;;;1.40;;
17727;SDS011;8984;49.268;12.302;2022-09-12T13:49:38;2.15;;;1.55;;
17727;SDS011;8984;49.268;12.302;2022-09-12T13:52:07;1.80;;;1.70;;
17727;SDS011;8984;49.268;12.302;2022-09-12T13:54:41;1.85;;;1.45;;
17727;SDS011;8984;49.268;12.302;2022-09-12T13:57:25;3.47;;;1.70;;
17727;SDS011;8984;49.268;12.302;2022-09-12T13:59:56;2.00;;;1.70;;
17727;SDS011;8984;49.268;12.302;2022-09-12T14:02:24;2.83;;;1.83;;
17727;SDS011;8984;49.268;12.302;2022-09-12T14:04:53;1.75;;;1.45;;
17727;SDS011;8984;49.268;12.302;2022-09-12T14:07:33;1.90;;;1.60;;
17727;SDS011;8984;49.268;12.302;2022-09-12T14:10:04;2.63;;;1.95;;
17727;SDS011;8984;49.268;12.302;2022-09-12T14:12:33;2.47;;;1.55;;
17727;SDS011;8984;49.268;12.302;2022-09-12T14:15:05;2.28;;;1.83;;
17727;SDS011;8984;49.268;12.302;2022-09-12T14:17:46;1.85;;;1.63;;
17727;SDS011;8984;49.268;12.302;2022-09-12T14:20:16;2.67;;;1.83;;
17727;SDS011;8984;49.268;12.302;2022-09-12T14:22:44;2.67;;;1.83;;
17727;SDS011;8984;49.268;12.302;2022-09-12T14:25:13;3.17;;;1.90;;
17727;SDS011;8984;49.268;12.302;2022-09-12T14:27:42;2.45;;;1.60;;
17727;SDS011;8984;49.268;12.302;2022-09-12T14:30:20;2.22;;;1.60;;
17727;SDS011;8984;49.268;12.302;2022-09-12T14:33:14;2.20;;;1.75;;
17727;SDS011;8984;49.268;12.302;2022-09-12T14:35:44;1.95;;;1.70;;
17727;SDS011;8984;49.268;12.302;2022-09-12T14:38:16;2.03;;;1.85;;
17727;SDS011;8984;49.268;12.302;2022-09-12T14:40:50;3.10;;;2.05;;
17727;SDS011;8984;49.268;12.302;2022-09-12T14:43:24;3.67;;;2.00;;
17727;SDS011;8984;49.268;12.302;2022-09-12T14:45:56;1.80;;;1.50;;
17727;SDS011;8984;49.268;12.302;2022-09-12T14:48:26;1.88;;;1.60;;
17727;SDS011;8984;49.268;12.302;2022-09-12T14:50:55;2.80;;;1.75;;
17727;SDS011;8984;49.268;12.302;2022-09-12T14:53:24;2.83;;;1.90;;
17727;SDS011;8984;49.268;12.302;2022-09-12T14:55:57;4.32;;;1.88;;
17727;SDS011;8984;49.268;12.302;2022-09-12T14:58:32;2.40;;;1.90;;
17727;SDS011;8984;49.268;12.302;2022-09-12T15:01:00;2.67;;;1.60;;
17727;SDS011;8984;49.268;12.302;2022-09-12T15:03:48;1.88;;;1.60;;
17727;SDS011;8984;49.268;12.302;2022-09-12T15:06:19;1.63;;;1.52;;
17727;SDS011;8984;49.268;12.302;2022-09-12T15:08:53;2.10;;;1.90;;
17727;SDS011;8984;49.268;12.302;2022-09-12T15:11:22;3.47;;;1.90;;
17727;SDS011;8984;49.268;12.302;2022-09-12T15:13:49;2.60;;;2.22;;
17727;SDS011;8984;49.268;12.302;2022-09-12T15:16:17;2.10;;;1.70;;
17727;SDS011;8984;49.268;12.302;2022-09-12T15:18:44;1.92;;;1.63;;
17727;SDS011;8984;49.268;12.302;2022-09-12T15:21:11;2.00;;;1.70;;
17727;SDS011;8984;49.268;12.302;2022-09-12T15:23:44;2.63;;;2.00;;
17727;SDS011;8984;49.268;12.302;2022-09-12T15:26:13;2.42;;;2.10;;
17727;SDS011;8984;49.268;12.302;2022-09-12T15:28:42;2.25;;;1.90;;
17727;SDS011;8984;49.268;12.302;2022-09-12T15:31:10;2.72;;;1.92;;
17727;SDS011;8984;49.268;12.302;2022-09-12T15:33:42;3.03;;;2.20;;
17727;SDS011;8984;49.268;12.302;2022-09-12T15:36:11;3.33;;;2.20;;
17727;SDS011;8984;49.268;12.302;2022-09-12T15:38:41;2.72;;;2.25;;
17727;SDS011;8984;49.268;12.302;2022-09-12T15:41:09;2.17;;;1.80;;
17727;SDS011;8984;49.268;12.302;2022-09-12T15:43:38;4.05;;;2.03;;
17727;SDS011;8984;49.268;12.302;2022-09-12T15:46:05;1.92;;;1.80;;
17727;SDS011;8984;49.268;12.302;2022-09-12T15:48:35;8.32;;;2.20;;
17727;SDS011;8984;49.268;12.302;2022-09-12T15:51:04;4.05;;;1.92;;
17727;SDS011;8984;49.268;12.302;2022-09-12T15:53:32;3.55;;;1.80;;
17727;SDS011;8984;49.268;12.302;2022-09-12T15:55:59;2.25;;;1.60;;
17727;SDS011;8984;49.268;12.302;2022-09-12T15:58:26;2.55;;;1.98;;